Time;durP1;ratioP1;P1;durP2;ratioP2;P2;SDS_P1;SDS_P2;PMS_P1;PMS_P2;Temp;Humidity;BMP_temperature;BMP_pressure;BME280_temperature;BME280_humidity;BME280_pressure;Samples;Min_cycle;Max_cycle;Signal;HPM_P1;HPM_P2
2022/05/26 00:00:17;;;;;;;0.50;0.40;;;;;;;17.72;51.48;97192.22;10457673;28;20040;-23
2022/05/26 00:05:18;;;;;;;1.77;0.55;;;;;;;17.69;51.69;97184.63;10456532;28;20376;-24
2022/05/26 00:10:18;;;;;;;0.95;0.40;;;;;;;17.69;51.60;97182.09;10456916;28;20443;-23
2022/05/26 00:15:18;;;;;;;0.93;0.52;;;;;;;17.66;51.68;97194.72;10464434;28;20107;-22
2022/05/26 00:20:19;;;;;;;1.40;0.57;;;;;;;17.57;51.55;97184.50;10466772;28;20153;-23
2022/05/26 00:25:19;;;;;;;0.90;0.30;;;;;;;17.64;51.42;97197.22;10472746;28;20036;-23
2022/05/26 00:30:19;;;;;;;0.93;0.50;;;;;;;17.63;51.20;97194.66;10498102;28;20060;-23
2022/05/26 00:35:20;;;;;;;1.50;0.50;;;;;;;17.58;51.71;97189.56;10465091;28;20315;-23
2022/05/26 00:40:21;;;;;;;0.63;0.40;;;;;;;17.58;51.43;97192.09;10466186;28;20036;-22
2022/05/26 00:45:21;;;;;;;2.07;0.70;;;;;;;17.57;51.57;97200.53;10495937;28;20066;-22
2022/05/26 00:50:30;;;;;;;1.70;0.55;;;;;;;17.59;51.52;97195.50;10478029;28;20295;-23
2022/05/26 00:55:36;;;;;;;0.75;0.40;;;;;;;17.56;51.51;97195.47;10454557;28;20028;-24
2022/05/26 01:00:38;;;;;;;1.05;0.40;;;;;;;17.54;51.68;97192.91;10454484;28;20399;-23
2022/05/26 01:05:42;;;;;;;0.52;0.30;;;;;;;17.54;51.54;97197.09;10475010;28;20056;-24
2022/05/26 01:10:42;;;;;;;1.00;0.30;;;;;;;17.59;51.44;97205.63;10480476;28;20056;-23
2022/05/26 01:15:49;;;;;;;0.80;0.40;;;;;;;17.57;51.55;97200.53;10465414;28;20259;-22
2022/05/26 01:21:18;;;;;;;1.08;0.40;;;;;;;17.55;51.67;97206.41;10494639;28;20067;-25
2022/05/26 01:26:36;;;;;;;0.65;0.40;;;;;;;17.55;51.69;97199.66;10474699;28;20406;-24
2022/05/26 01:31:49;;;;;;;2.95;0.43;;;;;;;17.56;51.52;97208.13;10453585;28;20036;-24
2022/05/26 01:36:52;;;;;;;4.10;0.50;;;;;;;17.55;51.68;97211.47;10452665;28;20033;-23
2022/05/26 01:42:06;;;;;;;0.73;0.32;;;;;;;17.42;51.53;97199.50;10475847;28;20404;-23
2022/05/26 01:47:19;;;;;;;1.50;0.30;;;;;;;17.48;51.74;97205.47;10492562;28;20033;-22
2022/05/26 01:52:35;;;;;;;1.15;0.40;;;;;;;17.51;51.52;97210.56;10493994;28;20494;-23
2022/05/26 01:57:58;;;;;;;1.50;0.50;;;;;;;17.53;51.79;97208.06;10464339;28;20036;-24
2022/05/26 02:03:06;;;;;;;1.02;0.30;;;;;;;17.51;51.66;97210.56;10452374;28;20040;-24
2022/05/26 02:08:11;;;;;;;4.07;0.65;;;;;;;17.50;51.79;97213.94;10452331;28;20037;-23
2022/05/26 02:13:18;;;;;;;0.93;0.33;;;;;;;17.49;51.72;97212.25;10452386;28;20049;-23
2022/05/26 02:18:24;;;;;;;1.25;0.43;;;;;;;17.43;51.84;97207.13;10470909;28;20036;-23
2022/05/26 02:23:37;;;;;;;1.75;0.50;;;;;;;17.37;51.84;97196.06;10454994;28;20043;-23
2022/05/26 02:34:01;;;;;;;1.10;0.43;;;;;;;17.45;51.96;97212.19;10451489;28;20021;-23
2022/05/26 02:39:03;;;;;;;1.13;0.57;;;;;;;17.46;51.62;97204.63;10451449;28;20029;-22
2022/05/26 02:44:05;;;;;;;0.75;0.40;;;;;;;17.44;51.78;97202.91;10450230;28;20032;-23
2022/05/26 02:49:43;;;;;;;2.72;0.43;;;;;;;17.43;51.92;97199.53;10451169;28;20063;-23
2022/05/26 02:55:27;;;;;;;1.35;0.50;;;;;;;17.42;52.08;97202.88;10484860;28;20058;-27
2022/05/26 03:00:43;;;;;;;1.90;0.60;;;;;;;17.38;52.07;97207.88;10447749;28;20045;-24
2022/05/26 03:05:56;;;;;;;0.98;0.30;;;;;;;17.42;52.35;97209.63;10449551;28;20037;-24
2022/05/26 03:11:10;;;;;;;0.50;0.40;;;;;;;17.41;51.85;97207.94;10465882;28;20032;-23
2022/05/26 03:16:11;;;;;;;0.95;0.30;;;;;;;17.39;51.89;97210.44;10490937;28;20064;-23
2022/05/26 03:21:11;;;;;;;0.77;0.40;;;;;;;17.43;51.85;97214.72;10489212;28;20471;-22
2022/05/26 03:26:12;;;;;;;1.38;0.60;;;;;;;17.45;51.78;97222.31;10471760;28;20037;-22
2022/05/26 03:31:12;;;;;;;1.00;0.40;;;;;;;17.41;51.99;97218.06;10450161;28;20041;-23
2022/05/26 03:41:31;;;;;;;1.77;0.50;;;;;;;17.38;52.41;97229.00;10470008;28;20047;-22
2022/05/26 03:46:32;;;;;;;0.55;0.20;;;;;;;17.38;52.29;97235.72;10490495;28;20428;-23
2022/05/26 03:51:33;;;;;;;0.70;0.50;;;;;;;17.37;52.08;97237.41;10466003;28;20554;-23
2022/05/26 03:56:33;;;;;;;2.53;0.50;;;;;;;17.34;52.33;97242.41;10470026;28;20361;-23
2022/05/26 04:01:34;;;;;;;2.33;0.40;;;;;;;17.32;52.41;97238.16;10491222;28;20029;-24
2022/05/26 04:06:34;;;;;;;0.97;0.43;;;;;;;17.34;52.47;97251.69;10458741;28;20041;-23
2022/05/26 04:11:35;;;;;;;0.52;0.25;;;;;;;17.38;52.46;97259.38;10470664;28;20497;-23
2022/05/26 04:16:35;;;;;;;4.05;0.38;;;;;;;17.39;52.73;97266.13;10489789;28;20119;-23
2022/05/26 04:22:14;;;;;;;0.53;0.33;;;;;;;17.37;52.50;97266.94;10467373;28;20033;-23
2022/05/26 04:26:56;;;;;;;0.32;0.30;;;;;;;17.35;52.16;97281.22;10454898;28;20047;-23
2022/05/26 04:31:56;;;;;;;0.67;0.40;;;;;;;17.36;52.62;97275.34;10453609;28;20043;-23
2022/05/26 04:36:57;;;;;;;0.77;0.57;;;;;;;17.34;52.69;97277.00;10455983;28;20070;-24
2022/05/26 04:42:02;;;;;;;3.20;0.50;;;;;;;17.33;52.62;97280.34;10455452;28;20032;-24
2022/05/26 04:47:03;;;;;;;1.40;0.57;;;;;;;17.34;52.74;97282.06;10455486;28;20342;-23
2022/05/26 04:52:05;;;;;;;0.90;0.30;;;;;;;17.33;52.82;97277.81;10455304;28;20549;-23
2022/05/26 04:57:06;;;;;;;2.45;0.50;;;;;;;17.34;52.86;97277.00;10455246;28;20033;-22
2022/05/26 05:02:12;;;;;;;0.95;0.40;;;;;;;17.40;52.89;97283.00;10455609;28;20039;-22
2022/05/26 05:07:12;;;;;;;1.85;0.55;;;;;;;17.39;52.80;97275.38;10455493;28;20064;-23
2022/05/26 05:12:19;;;;;;;3.17;0.70;;;;;;;17.33;52.92;97277.81;10481196;28;20071;-22
2022/05/26 05:17:21;;;;;;;0.60;0.30;;;;;;;17.39;53.19;97290.56;10496106;28;20271;-22
2022/05/26 05:22:31;;;;;;;1.90;0.60;;;;;;;17.39;53.13;97285.50;10463804;28;20454;-22
2022/05/26 05:27:35;;;;;;;0.85;0.38;;;;;;;17.42;52.93;97291.47;10460507;28;20079;-23
2022/05/26 05:32:52;;;;;;;1.02;0.40;;;;;;;17.36;53.42;97288.88;10454437;28;20060;-23
2022/05/26 05:37:54;;;;;;;1.33;0.50;;;;;;;17.33;53.51;97293.00;10452727;28;20486;-23
2022/05/26 05:42:55;;;;;;;3.85;0.40;;;;;;;17.33;53.65;97300.59;10452480;28;20032;-22
2022/05/26 05:47:55;;;;;;;2.10;0.93;;;;;;;17.27;53.89;97275.22;10452897;28;20040;-24
2022/05/26 05:52:56;;;;;;;1.10;0.40;;;;;;;17.38;54.15;97299.88;10483367;28;20462;-23
2022/05/26 05:57:56;;;;;;;2.57;0.60;;;;;;;17.48;53.91;97303.38;10472488;28;20054;-22
2022/05/26 06:02:56;;;;;;;1.60;0.70;;;;;;;17.47;54.35;97304.19;10470858;28;20567;-23
2022/05/26 06:07:57;;;;;;;1.37;0.50;;;;;;;17.44;54.47;97305.03;10479128;28;20032;-24
2022/05/26 06:12:58;;;;;;;1.63;0.60;;;;;;;17.45;54.27;97313.44;10456552;28;20028;-24
2022/05/26 06:17:59;;;;;;;2.42;0.40;;;;;;;17.45;54.33;97310.91;10470851;28;20036;-23
2022/05/26 06:23:00;;;;;;;2.00;0.68;;;;;;;17.53;54.79;97309.34;10489755;28;20651;-23
2022/05/26 06:38:40;;;;;;;1.40;0.45;;;;;;;17.90;53.47;97332.59;10451486;28;20029;-22
2022/05/26 06:43:41;;;;;;;2.40;0.50;;;;;;;17.74;54.06;97319.75;10460671;28;20485;-23
2022/05/26 06:48:41;;;;;;;0.40;0.40;;;;;;;17.83;53.61;97340.94;10449734;28;20041;-23
2022/05/26 06:53:41;;;;;;;5.35;0.40;;;;;;;17.83;53.71;97338.41;10449834;28;20033;-23
2022/05/26 06:58:42;;;;;;;0.60;0.40;;;;;;;17.70;53.67;97325.59;10488491;28;20637;-23
2022/05/26 07:03:42;;;;;;;0.77;0.50;;;;;;;17.84;53.30;97339.28;10479523;28;20291;-24
2022/05/26 07:08:46;;;;;;;1.60;0.30;;;;;;;17.80;53.82;97335.00;10448651;28;20124;-23
2022/05/26 07:13:48;;;;;;;14.40;0.73;;;;;;;18.03;53.07;97341.19;10456764;28;20036;-22
2022/05/26 07:18:50;;;;;;;1.75;0.55;;;;;;;18.06;52.96;97343.75;10469440;28;20061;-23
2022/05/26 07:23:51;;;;;;;0.82;0.28;;;;;;;18.08;53.34;97339.56;10433584;28;20079;-23
2022/05/26 07:28:52;;;;;;;2.00;0.80;;;;;;;18.22;52.68;97343.09;10425102;28;20106;-25
2022/05/26 07:33:52;;;;;;;1.40;0.30;;;;;;;18.18;53.09;97343.91;10427525;28;20040;-22
2022/05/26 07:44:12;;;;;;;0.60;0.32;;;;;;;18.18;52.87;97359.13;10424653;28;20060;-22
2022/05/26 07:49:12;;;;;;;0.47;0.32;;;;;;;18.24;52.76;97352.41;10418302;28;20435;-21
2022/05/26 07:54:13;;;;;;;0.53;0.30;;;;;;;18.15;53.22;97356.56;10443930;28;20047;-22
2022/05/26 07:59:13;;;;;;;0.75;0.40;;;;;;;18.19;53.00;97361.69;10468161;28;20034;-23
2022/05/26 08:04:17;;;;;;;0.85;0.40;;;;;;;18.20;53.03;97365.03;10469444;28;20033;-22
2022/05/26 08:09:20;;;;;;;0.85;0.50;;;;;;;18.13;53.29;97363.25;10457410;28;20098;-22
2022/05/26 08:14:22;;;;;;;1.25;0.35;;;;;;;18.18;53.11;97362.47;10486515;28;20045;-22
2022/05/26 08:19:22;;;;;;;1.93;0.30;;;;;;;18.19;53.26;97369.28;10487996;28;20427;-22
2022/05/26 08:24:24;;;;;;;0.20;0.20;;;;;;;18.06;52.96;97364.88;10489820;28;20290;-22
2022/05/26 08:29:24;;;;;;;0.73;0.30;;;;;;;18.01;52.75;97366.50;10456588;28;20108;-22
2022/05/26 08:34:25;;;;;;;0.60;0.23;;;;;;;18.04;52.77;97374.16;10454828;28;20120;-23
2022/05/26 08:39:25;;;;;;;1.33;0.77;;;;;;;17.99;52.54;97372.41;10467944;28;20701;-23
2022/05/26 08:44:31;;;;;;;3.05;0.40;;;;;;;18.03;52.35;97364.88;10491390;28;20387;-24
2022/05/26 08:49:40;;;;;;;15.35;1.13;;;;;;;18.18;52.85;97379.38;10492879;28;20048;-22
2022/05/26 08:54:58;;;;;;;7.63;0.90;;;;;;;18.20;52.60;97383.66;10494940;28;20045;-22
2022/05/26 08:59:59;;;;;;;1.33;0.40;;;;;;;17.94;52.59;97377.41;10496763;28;20040;-22
2022/05/26 09:05:04;;;;;;;3.38;0.50;;;;;;;18.34;51.71;97386.38;10485987;28;20040;-22
2022/05/26 09:15:29;;;;;;;1.40;0.50;;;;;;;18.00;52.42;97389.31;10495362;28;20086;-22
2022/05/26 09:20:34;;;;;;;4.90;0.50;;;;;;;18.09;52.18;97391.97;10484023;28;20062;-23
2022/05/26 09:26:00;;;;;;;1.15;0.45;;;;;;;18.29;51.77;97398.09;10484004;28;20112;-23
2022/05/26 09:31:22;;;;;;;3.08;0.50;;;;;;;17.91;52.66;97404.41;10465946;28;20071;-22
2022/05/26 09:36:28;;;;;;;3.72;0.70;;;;;;;17.96;52.43;97398.56;10454293;28;20052;-23
2022/05/26 09:41:37;;;;;;;2.28;0.43;;;;;;;17.99;51.85;97407.88;10453104;28;20036;-22
2022/05/26 09:46:37;;;;;;;0.50;0.45;;;;;;;18.00;51.85;97414.66;10452772;28;20059;-23
2022/05/26 09:51:44;;;;;;;1.90;0.40;;;;;;;17.96;52.00;97410.34;10475248;28;20044;-22
2022/05/26 09:56:44;;;;;;;1.58;0.55;;;;;;;17.98;51.57;97419.69;10470840;28;20295;-22
2022/05/26 10:01:45;;;;;;;1.40;0.40;;;;;;;17.99;51.81;97418.00;10466724;28;20225;-23
2022/05/26 10:06:55;;;;;;;1.10;0.40;;;;;;;18.10;51.66;97419.84;10459756;28;20773;-23
2022/05/26 10:12:23;;;;;;;2.97;0.77;;;;;;;18.31;51.52;97426.88;10476218;28;20037;-23
2022/05/26 10:17:36;;;;;;;1.52;0.47;;;;;;;18.14;51.42;97433.38;10487643;28;20036;-22
2022/05/26 10:22:49;;;;;;;1.05;0.40;;;;;;;17.98;52.49;97431.53;10484714;28;20039;-22
2022/05/26 10:28:04;;;;;;;2.13;0.40;;;;;;;17.91;52.48;97424.66;10459849;28;20033;-23
2022/05/26 10:33:25;;;;;;;1.15;0.40;;;;;;;17.79;52.86;97421.94;10451489;28;20052;-21
2022/05/26 10:38:48;;;;;;;1.58;0.45;;;;;;;17.90;52.32;97416.19;10451520;28;20033;-22
2022/05/26 10:44:30;;;;;;;4.28;0.60;;;;;;;17.95;52.51;97406.13;10480095;28;20484;-22
2022/05/26 10:49:49;;;;;;;3.33;0.50;;;;;;;18.02;52.39;97418.91;10490399;28;20403;-24
2022/05/26 10:54:58;;;;;;;1.00;0.40;;;;;;;17.92;53.15;97418.75;10484123;28;20036;-23
2022/05/26 11:00:10;;;;;;;2.55;0.40;;;;;;;17.97;52.45;97405.31;10448721;28;20483;-25
2022/05/26 11:05:17;;;;;;;2.83;0.40;;;;;;;18.04;52.48;97408.78;10449085;28;20176;-22
2022/05/26 11:10:29;;;;;;;0.68;0.50;;;;;;;17.98;52.87;97407.00;10449849;28;20040;-22
2022/05/26 11:21:02;;;;;;;1.58;0.40;;;;;;;18.34;51.64;97404.13;10466847;28;20137;-23
2022/05/26 11:26:07;;;;;;;0.80;0.47;;;;;;;18.12;52.57;97409.72;10474150;28;20041;-23
2022/05/26 11:36:47;;;;;;;1.48;0.40;;;;;;;18.08;52.30;97416.44;10449169;28;20025;-22
2022/05/26 11:41:53;;;;;;;3.67;0.70;;;;;;;18.03;52.59;97405.41;10454117;28;20040;-24
2022/05/26 11:47:24;;;;;;;1.77;0.50;;;;;;;17.98;52.84;97406.19;10457726;28;20101;-23
2022/05/26 11:52:34;;;;;;;5.30;0.65;;;;;;;18.02;52.86;97403.72;10457349;28;20059;-22
2022/05/26 11:57:49;;;;;;;2.50;0.60;;;;;;;17.92;53.44;97413.69;10457092;28;20075;-23
2022/05/26 12:02:51;;;;;;;2.72;0.40;;;;;;;17.95;53.70;97407.00;10456931;28;20445;-21
2022/05/26 12:07:51;;;;;;;2.92;0.50;;;;;;;18.02;53.08;97412.97;10457670;28;20036;-23
2022/05/26 12:13:19;;;;;;;1.27;0.40;;;;;;;17.98;53.28;97423.91;10456906;28;20660;-23
2022/05/26 12:18:37;;;;;;;2.38;0.70;;;;;;;17.99;53.26;97412.94;10456787;28;20295;-23
2022/05/26 12:23:37;;;;;;;0.90;0.43;;;;;;;18.03;53.22;97414.66;10456443;28;20124;-24
2022/05/26 12:28:38;;;;;;;0.67;0.53;;;;;;;18.02;53.30;97410.44;10456095;28;20476;-23
2022/05/26 12:33:52;;;;;;;0.93;0.60;;;;;;;18.04;53.08;97406.25;10460697;28;20347;-24
2022/05/26 12:38:53;;;;;;;1.33;0.30;;;;;;;18.05;53.12;97410.47;10497837;28;20028;-23
2022/05/26 12:44:31;;;;;;;2.13;0.43;;;;;;;18.04;53.24;97404.56;10455999;28;20033;-23
2022/05/26 12:49:57;;;;;;;0.68;0.45;;;;;;;18.05;53.05;97403.72;10453848;28;20801;-22
2022/05/26 12:55:12;;;;;;;1.52;0.60;;;;;;;18.21;52.95;97407.28;10454553;28;20475;-25
2022/05/26 13:00:33;;;;;;;2.38;0.80;;;;;;;18.09;53.45;97404.63;10455172;28;20412;-22
2022/05/26 13:05:43;;;;;;;3.10;0.68;;;;;;;18.11;53.40;97408.03;10454546;28;20098;-22
2022/05/26 13:10:44;;;;;;;6.57;1.50;;;;;;;18.34;53.25;97406.66;10454786;28;20041;-23
2022/05/26 13:15:46;;;;;;;3.65;1.20;;;;;;;18.18;53.17;97394.59;10453795;28;20033;-24
2022/05/26 13:20:47;;;;;;;3.10;0.63;;;;;;;18.15;53.54;97400.47;10468459;28;20036;-23
2022/05/26 13:25:47;;;;;;;2.75;0.60;;;;;;;18.12;53.77;97399.59;10459172;28;20116;-24
2022/05/26 13:36:14;;;;;;;2.65;0.98;;;;;;;18.18;53.54;97389.53;10490324;28;20024;-22
2022/05/26 13:41:19;;;;;;;2.58;0.98;;;;;;;18.18;53.71;97381.94;10494983;28;20032;-23
2022/05/26 13:46:30;;;;;;;2.85;1.30;;;;;;;18.13;53.80;97381.00;10494424;28;20029;-22
2022/05/26 13:51:42;;;;;;;7.53;3.22;;;;;;;18.36;53.22;97374.56;10467427;28;20056;-23
2022/05/26 13:56:46;;;;;;;3.75;1.77;;;;;;;18.17;53.68;97375.16;10453025;28;20315;-22
2022/05/26 14:01:52;;;;;;;3.05;2.30;;;;;;;18.08;54.12;97377.59;10452829;28;20048;-22
2022/05/26 14:06:52;;;;;;;4.00;1.40;;;;;;;18.09;53.83;97376.75;10452289;28;20044;-23
2022/05/26 14:12:05;;;;;;;2.10;1.50;;;;;;;18.15;53.77;97374.28;10475787;28;20112;-23
2022/05/26 14:17:10;;;;;;;2.92;1.23;;;;;;;18.20;53.79;97365.03;10494268;28;20032;-23
2022/05/26 14:22:10;;;;;;;3.08;1.45;;;;;;;18.20;53.87;97352.38;10457426;28;20076;-22
2022/05/26 14:27:22;;;;;;;2.58;1.20;;;;;;;18.35;53.44;97355.94;10453892;28;20111;-22
2022/05/26 14:32:34;;;;;;;1.77;1.00;;;;;;;18.27;53.68;97357.53;10491178;28;20098;-21
2022/05/26 14:37:34;;;;;;;2.60;0.95;;;;;;;18.32;53.78;97355.09;10492140;28;20028;-22
2022/05/26 14:42:38;;;;;;;1.90;0.90;;;;;;;18.24;54.06;97349.06;10462780;28;20515;-21
2022/05/26 14:47:39;;;;;;;2.30;0.90;;;;;;;18.25;53.90;97350.75;10450936;28;20079;-22
2022/05/26 14:52:43;;;;;;;1.50;0.80;;;;;;;18.22;54.01;97345.63;10478337;28;20057;-21
2022/05/26 14:57:44;;;;;;;15.68;2.13;;;;;;;18.52;54.37;97334.19;10452654;28;20071;-21
2022/05/26 15:02:44;;;;;;;2.78;1.10;;;;;;;18.60;53.48;97339.31;10459260;28;20041;-22
2022/05/26 15:07:46;;;;;;;1.63;0.88;;;;;;;18.44;53.65;97333.25;10450808;28;20563;-21
2022/05/26 15:12:47;;;;;;;2.90;0.60;;;;;;;18.54;53.68;97334.16;10461748;28;20175;-21
2022/05/26 15:17:47;;;;;;;3.13;0.80;;;;;;;18.68;53.34;97332.63;10453438;28;20689;-21
2022/05/26 15:22:48;;;;;;;1.08;0.98;;;;;;;18.44;53.90;97342.53;10463183;28;20051;-21
2022/05/26 15:27:48;;;;;;;0.93;0.67;;;;;;;18.52;53.84;97325.69;10458336;28;20041;-21
2022/05/26 15:32:49;;;;;;;5.40;0.63;;;;;;;18.45;53.95;97331.53;10450014;28;20291;-23
2022/05/26 15:37:51;;;;;;;0.60;0.50;;;;;;;18.45;53.92;97329.00;10450117;28;20044;-20
2022/05/26 15:42:52;;;;;;;2.42;0.70;;;;;;;18.45;53.91;97318.88;10449712;28;20048;-22
2022/05/26 15:47:53;;;;;;;1.25;0.55;;;;;;;18.39;54.01;97313.72;10449686;28;20090;-21
2022/05/26 15:52:55;;;;;;;1.90;0.60;;;;;;;18.55;53.97;97313.91;10449502;28;20175;-21
2022/05/26 15:57:58;;;;;;;1.90;0.85;;;;;;;18.75;54.65;97314.09;10448085;28;20491;-21
2022/05/26 16:02:58;;;;;;;2.63;0.80;;;;;;;18.71;53.62;97308.13;10452149;28;20380;-25
2022/05/26 16:07:59;;;;;;;2.83;0.53;;;;;;;18.78;53.67;97311.56;10490535;28;20041;-25
2022/05/26 16:13:00;;;;;;;1.40;0.60;;;;;;;18.68;53.54;97304.72;10444676;28;20062;-25
2022/05/26 16:18:02;;;;;;;1.08;0.50;;;;;;;18.55;53.71;97290.22;10484117;28;20024;-24
2022/05/26 16:23:04;;;;;;;2.00;0.90;;;;;;;18.46;54.09;97295.22;10485991;28;20215;-23
2022/05/26 16:28:05;;;;;;;0.85;0.40;;;;;;;18.42;54.12;97303.63;10475954;28;20036;-24
2022/05/26 16:33:06;;;;;;;1.05;0.55;;;;;;;18.46;53.92;97291.00;10486370;28;20380;-23
2022/05/26 16:38:07;;;;;;;1.25;0.50;;;;;;;18.40;54.29;97301.09;10459283;28;20035;-24
2022/05/26 16:43:08;;;;;;;5.90;0.60;;;;;;;18.54;53.96;97297.00;10456919;28;20037;-25
2022/05/26 16:48:09;;;;;;;1.30;0.70;;;;;;;18.41;54.24;97297.72;10476950;28;20504;-23
2022/05/26 16:53:11;;;;;;;1.10;0.50;;;;;;;18.46;54.04;97291.00;10467165;28;20029;-24
2022/05/26 16:58:16;;;;;;;1.75;0.90;;;;;;;18.37;54.21;97285.84;10480170;28;20032;-23
2022/05/26 17:03:17;;;;;;;3.35;1.00;;;;;;;18.38;54.31;97286.69;10478186;28;20606;-23
2022/05/26 17:08:20;;;;;;;2.55;0.70;;;;;;;18.34;54.17;97292.56;10450499;28;20033;-24
2022/05/26 17:24:00;;;;;;;0.77;0.60;;;;;;;18.30;54.23;97289.16;10453760;28;20377;-24
2022/05/26 17:29:00;;;;;;;1.08;0.63;;;;;;;18.33;54.07;97293.41;10471535;28;20037;-22
2022/05/26 17:34:03;;;;;;;3.70;0.90;;;;;;;18.19;54.44;97280.56;10453828;28;20044;-24
2022/05/26 17:39:10;;;;;;;0.47;0.40;;;;;;;18.36;53.91;97288.34;10452963;28;20111;-23
2022/05/26 17:44:15;;;;;;;0.70;0.60;;;;;;;18.38;53.72;97279.94;10453149;28;20111;-25
2022/05/26 17:49:19;;;;;;;1.33;0.70;;;;;;;18.36;53.62;97275.69;10453083;28;20060;-23
2022/05/26 17:54:23;;;;;;;0.82;0.82;;;;;;;18.36;53.96;97278.22;10454551;28;20047;-24
2022/05/26 18:04:45;;;;;;;1.42;0.57;;;;;;;18.26;54.44;97276.41;10456505;28;20044;-24
2022/05/26 18:09:46;;;;;;;1.50;0.50;;;;;;;18.21;54.44;97278.03;10448308;28;20090;-24
2022/05/26 18:14:47;;;;;;;1.90;0.50;;;;;;;18.23;54.39;97281.44;10454187;28;20089;-22
2022/05/26 18:19:54;;;;;;;1.45;0.60;;;;;;;18.21;54.24;97281.44;10468440;28;20123;-24
2022/05/26 18:24:55;;;;;;;2.38;0.75;;;;;;;18.19;54.58;97277.19;10480704;28;20033;-23
2022/05/26 18:29:55;;;;;;;1.58;0.88;;;;;;;18.19;54.57;97284.78;10447293;28;20491;-23
2022/05/26 18:35:00;;;;;;;3.33;1.47;;;;;;;18.17;54.50;97281.38;10447332;28;20039;-25
2022/05/26 18:40:03;;;;;;;3.53;1.30;;;;;;;18.14;54.46;97276.28;10447516;28;20365;-25
2022/05/26 18:45:05;;;;;;;1.75;1.00;;;;;;;18.15;54.60;97272.94;10446328;28;20649;-24
2022/05/26 18:50:10;;;;;;;3.38;1.25;;;;;;;18.14;54.79;97287.28;10444299;28;20041;-23
2022/05/26 18:55:14;;;;;;;1.52;1.05;;;;;;;18.13;54.88;97285.56;10475863;28;20048;-22
2022/05/26 19:00:15;;;;;;;2.15;0.85;;;;;;;18.08;55.49;97296.50;10452630;28;20498;-23
2022/05/26 19:05:16;;;;;;;1.23;1.00;;;;;;;18.01;55.65;97287.13;10445959;28;20043;-24
2022/05/26 19:10:18;;;;;;;3.30;2.00;;;;;;;18.02;56.16;97306.56;10446684;28;20043;-23
2022/05/26 19:15:19;;;;;;;3.55;2.60;;;;;;;17.97;56.51;97313.25;10445708;28;20043;-25
2022/05/26 19:20:19;;;;;;;4.82;2.63;;;;;;;17.94;56.95;97324.22;10451245;28;20047;-25
2022/05/26 19:25:19;;;;;;;5.07;2.40;;;;;;;17.94;56.94;97325.88;10445667;28;20284;-24
2022/05/26 19:30:21;;;;;;;2.42;2.22;;;;;;;17.96;56.82;97341.94;10445642;28;20120;-24
2022/05/26 19:35:23;;;;;;;5.03;2.45;;;;;;;17.95;56.70;97340.25;10444705;28;20048;-24
2022/05/26 19:40:23;;;;;;;3.28;2.47;;;;;;;17.95;57.18;97345.31;10450592;28;20097;-23
2022/05/26 19:45:23;;;;;;;3.80;2.40;;;;;;;17.90;57.01;97352.88;10445971;28;20116;-24
2022/05/26 19:50:25;;;;;;;4.38;2.90;;;;;;;17.88;57.12;97354.53;10443702;28;20051;-24
2022/05/26 19:55:26;;;;;;;3.17;2.20;;;;;;;17.92;56.82;97363.03;10444699;28;20032;-21
2022/05/26 20:00:29;;;;;;;2.60;1.67;;;;;;;17.88;56.79;97363.81;10484369;28;20045;-22
2022/05/26 20:05:32;;;;;;;3.30;1.88;;;;;;;17.89;56.98;97376.50;10475798;28;20457;-22
2022/05/26 20:10:32;;;;;;;3.13;1.70;;;;;;;17.91;56.94;97379.91;10453150;28;20045;-22
2022/05/26 20:15:33;;;;;;;2.38;1.60;;;;;;;17.81;57.02;97379.75;10457605;28;20036;-22
2022/05/26 20:20:33;;;;;;;3.28;1.15;;;;;;;17.88;56.95;97395.06;10453336;28;20051;-21
2022/05/26 20:25:37;;;;;;;3.10;1.27;;;;;;;17.81;56.88;97392.41;10471117;28;20060;-21
2022/05/26 20:30:38;;;;;;;3.00;1.08;;;;;;;17.77;57.03;97400.81;10456091;28;20048;-22
2022/05/26 20:35:40;;;;;;;1.30;1.20;;;;;;;17.80;56.89;97403.38;10455852;28;20612;-22
2022/05/26 20:40:41;;;;;;;1.92;0.93;;;;;;;17.90;56.92;97397.63;10456545;28;20040;-21
2022/05/26 20:45:44;;;;;;;1.33;0.60;;;;;;;18.15;56.21;97414.84;10473932;28;20036;-22
2022/05/26 20:50:46;;;;;;;0.50;0.50;;;;;;;18.20;55.86;97410.66;10471770;28;20036;-21
2022/05/26 20:55:52;;;;;;;1.73;0.75;;;;;;;18.17;55.91;97397.97;10453297;28;20032;-21
2022/05/26 21:00:53;;;;;;;;;;;;;;;18.16;55.78;97407.25;10489519;28;20029;-23
2022/05/26 21:05:53;;;;;;;2.23;0.70;;;;;;;18.19;55.94;97408.97;10459758;28;19923;-23
2022/05/26 21:10:54;;;;;;;2.78;1.13;;;;;;;18.18;55.95;97399.66;10469404;28;20062;-21
2022/05/26 21:15:54;;;;;;;1.97;0.50;;;;;;;18.15;55.81;97402.19;10495666;28;20039;-22
2022/05/26 21:20:55;;;;;;;1.13;0.60;;;;;;;18.13;55.82;97398.75;10477504;28;20033;-21
2022/05/26 21:25:55;;;;;;;1.05;0.70;;;;;;;18.09;56.01;97394.50;10454348;28;20074;-23
2022/05/26 21:31:02;;;;;;;1.00;0.80;;;;;;;18.12;56.09;97394.50;10454613;28;20347;-22
2022/05/26 21:36:03;;;;;;;0.82;0.68;;;;;;;18.19;55.86;97397.16;10486098;28;20179;-21
2022/05/26 21:41:04;;;;;;;1.17;0.77;;;;;;;18.14;55.72;97388.63;10470050;28;20043;-23
2022/05/26 21:46:05;;;;;;;1.30;0.68;;;;;;;18.22;55.73;97401.38;10494141;28;20128;-23
2022/05/26 21:51:13;;;;;;;2.72;0.90;;;;;;;18.14;55.87;97403.84;10458907;28;20085;-23
2022/05/26 21:56:13;;;;;;;2.15;0.50;;;;;;;18.16;56.04;97401.34;10469349;28;20032;-22
2022/05/26 22:01:16;;;;;;;1.50;0.80;;;;;;;18.08;56.26;97392.78;10495355;28;20040;-21
2022/05/26 22:11:37;;;;;;;3.13;0.80;;;;;;;18.03;56.52;97390.19;10452786;28;20044;-23
2022/05/26 22:16:46;;;;;;;1.38;0.60;;;;;;;18.05;56.19;97380.06;10452114;28;20085;-21
2022/05/26 22:21:51;;;;;;;0.93;0.50;;;;;;;18.05;56.21;97388.53;10488699;28;20024;-22
2022/05/26 22:26:52;;;;;;;1.02;0.88;;;;;;;18.15;55.81;97385.25;10468395;28;20037;-21
2022/05/26 22:31:53;;;;;;;1.85;0.52;;;;;;;18.17;55.69;97386.13;10451418;28;20060;-23
2022/05/26 22:36:53;;;;;;;0.73;0.57;;;;;;;18.11;55.92;97383.53;10451610;28;20025;-21
2022/05/26 22:41:53;;;;;;;1.40;0.60;;;;;;;18.10;56.06;97380.97;10451767;28;20295;-21
2022/05/26 22:46:54;;;;;;;0.90;0.50;;;;;;;18.07;55.98;97381.78;10450254;28;20072;-22
2022/05/26 22:51:54;;;;;;;1.73;0.80;;;;;;;18.07;55.88;97386.84;10449473;28;20037;-22
2022/05/26 22:56:55;;;;;;;1.63;0.87;;;;;;;18.06;56.13;97380.09;10452224;28;20032;-21
2022/05/26 23:01:55;;;;;;;0.90;0.60;;;;;;;18.03;56.24;97364.00;10488743;28;20068;-22
2022/05/26 23:06:55;;;;;;;1.47;0.70;;;;;;;18.01;56.32;97360.59;10449436;28;20498;-23
2022/05/26 23:11:56;;;;;;;0.90;0.80;;;;;;;18.01;56.08;97370.75;10472483;28;20024;-22
2022/05/26 23:16:56;;;;;;;1.08;0.68;;;;;;;18.08;55.77;97367.44;10484974;28;20295;-21
2022/05/26 23:21:57;;;;;;;0.87;0.80;;;;;;;18.21;55.54;97370.13;10487574;28;20503;-21
2022/05/26 23:26:57;;;;;;;2.20;0.80;;;;;;;18.16;55.77;97365.84;10464744;28;20044;-22
2022/05/26 23:31:57;;;;;;;1.03;0.80;;;;;;;18.07;55.85;97371.66;10448335;28;20033;-21
2022/05/26 23:36:58;;;;;;;1.40;0.87;;;;;;;18.03;55.84;97367.41;10446644;28;20674;-22
2022/05/26 23:47:17;;;;;;;2.88;0.90;;;;;;;17.99;55.93;97359.75;10453447;28;1049020;-23
2022/05/26 23:52:17;;;;;;;0.60;0.40;;;;;;;18.01;55.91;97355.53;10462916;28;20090;-21
